sensor_id;sensor_type;location;lat;lon;timestamp;P1;durP1;ratioP1;P2;durP2;ratioP2
6019;SDS011;3038;51.122;6.840;2023-02-05T00:01:32;29.33;;;21.33;;
6019;SDS011;3038;51.122;6.840;2023-02-05T00:03:58;30.97;;;20.97;;
6019;SDS011;3038;51.122;6.840;2023-02-05T00:06:23;30.83;;;21.93;;
6019;SDS011;3038;51.122;6.840;2023-02-05T00:08:49;37.80;;;21.67;;
6019;SDS011;3038;51.122;6.840;2023-02-05T00:11:14;31.07;;;20.53;;
6019;SDS011;3038;51.122;6.840;2023-02-05T00:13:40;35.77;;;22.77;;
6019;SDS011;3038;51.122;6.840;2023-02-05T00:16:07;32.63;;;23.70;;
6019;SDS011;3038;51.122;6.840;2023-02-05T00:18:51;37.37;;;23.90;;
6019;SDS011;3038;51.122;6.840;2023-02-05T00:21:17;39.23;;;22.57;;
6019;SDS011;3038;51.122;6.840;2023-02-05T00:23:44;32.40;;;22.63;;
6019;SDS011;3038;51.122;6.840;2023-02-05T00:26:10;33.87;;;22.80;;
6019;SDS011;3038;51.122;6.840;2023-02-05T00:28:37;38.27;;;22.77;;
6019;SDS011;3038;51.122;6.840;2023-02-05T00:31:07;33.53;;;25.37;;
6019;SDS011;3038;51.122;6.840;2023-02-05T00:33:38;36.03;;;24.23;;
6019;SDS011;3038;51.122;6.840;2023-02-05T00:36:03;34.20;;;23.27;;
6019;SDS011;3038;51.122;6.840;2023-02-05T00:38:29;40.83;;;24.50;;
6019;SDS011;3038;51.122;6.840;2023-02-05T00:40:55;36.97;;;24.77;;
6019;SDS011;3038;51.122;6.840;2023-02-05T00:43:20;39.57;;;24.20;;
6019;SDS011;3038;51.122;6.840;2023-02-05T00:45:46;35.93;;;22.97;;
6019;SDS011;3038;51.122;6.840;2023-02-05T00:48:11;43.20;;;24.37;;
6019;SDS011;3038;51.122;6.840;2023-02-05T00:50:37;32.67;;;22.93;;
6019;SDS011;3038;51.122;6.840;2023-02-05T00:53:02;36.00;;;24.57;;
6019;SDS011;3038;51.122;6.840;2023-02-05T00:55:27;37.27;;;26.40;;
6019;SDS011;3038;51.122;6.840;2023-02-05T00:57:53;40.80;;;24.10;;
6019;SDS011;3038;51.122;6.840;2023-02-05T01:00:18;29.37;;;21.93;;
6019;SDS011;3038;51.122;6.840;2023-02-05T01:02:44;30.80;;;22.63;;
6019;SDS011;3038;51.122;6.840;2023-02-05T01:05:09;31.67;;;21.50;;
6019;SDS011;3038;51.122;6.840;2023-02-05T01:07:35;31.87;;;20.93;;
6019;SDS011;3038;51.122;6.840;2023-02-05T01:10:00;39.07;;;22.10;;
6019;SDS011;3038;51.122;6.840;2023-02-05T01:12:26;29.53;;;22.00;;
6019;SDS011;3038;51.122;6.840;2023-02-05T01:14:51;36.00;;;23.07;;
6019;SDS011;3038;51.122;6.840;2023-02-05T01:17:18;37.33;;;22.40;;
6019;SDS011;3038;51.122;6.840;2023-02-05T01:19:43;36.30;;;22.53;;
6019;SDS011;3038;51.122;6.840;2023-02-05T01:22:09;30.60;;;22.53;;
6019;SDS011;3038;51.122;6.840;2023-02-05T01:24:35;37.03;;;23.30;;
6019;SDS011;3038;51.122;6.840;2023-02-05T01:27:01;31.17;;;20.57;;
6019;SDS011;3038;51.122;6.840;2023-02-05T01:29:27;37.10;;;18.83;;
6019;SDS011;3038;51.122;6.840;2023-02-05T01:31:53;35.47;;;19.77;;
6019;SDS011;3038;51.122;6.840;2023-02-05T01:34:18;33.67;;;19.07;;
6019;SDS011;3038;51.122;6.840;2023-02-05T01:36:43;33.67;;;21.00;;
6019;SDS011;3038;51.122;6.840;2023-02-05T01:39:09;31.30;;;19.30;;
6019;SDS011;3038;51.122;6.840;2023-02-05T01:41:34;36.77;;;17.40;;
6019;SDS011;3038;51.122;6.840;2023-02-05T01:46:53;31.43;;;16.50;;
6019;SDS011;3038;51.122;6.840;2023-02-05T01:49:24;28.63;;;16.87;;
6019;SDS011;3038;51.122;6.840;2023-02-05T01:51:54;28.70;;;18.17;;
6019;SDS011;3038;51.122;6.840;2023-02-05T01:54:23;32.00;;;18.10;;
6019;SDS011;3038;51.122;6.840;2023-02-05T01:56:56;32.63;;;17.00;;
6019;SDS011;3038;51.122;6.840;2023-02-05T01:59:27;31.93;;;17.57;;
6019;SDS011;3038;51.122;6.840;2023-02-05T02:01:57;30.40;;;19.07;;
6019;SDS011;3038;51.122;6.840;2023-02-05T02:04:29;27.47;;;16.73;;
6019;SDS011;3038;51.122;6.840;2023-02-05T02:07:02;33.87;;;19.87;;
6019;SDS011;3038;51.122;6.840;2023-02-05T02:09:28;33.83;;;17.40;;
6019;SDS011;3038;51.122;6.840;2023-02-05T02:11:53;24.93;;;17.53;;
6019;SDS011;3038;51.122;6.840;2023-02-05T02:14:22;23.37;;;15.87;;
6019;SDS011;3038;51.122;6.840;2023-02-05T02:16:48;27.37;;;16.03;;
6019;SDS011;3038;51.122;6.840;2023-02-05T02:19:17;28.07;;;18.17;;
6019;SDS011;3038;51.122;6.840;2023-02-05T02:27:36;30.20;;;18.20;;
6019;SDS011;3038;51.122;6.840;2023-02-05T02:32:54;27.07;;;17.07;;
6019;SDS011;3038;51.122;6.840;2023-02-05T02:35:34;37.00;;;17.60;;
6019;SDS011;3038;51.122;6.840;2023-02-05T02:38:26;24.90;;;17.07;;
6019;SDS011;3038;51.122;6.840;2023-02-05T02:41:05;31.90;;;15.97;;
6019;SDS011;3038;51.122;6.840;2023-02-05T02:46:19;26.13;;;16.20;;
6019;SDS011;3038;51.122;6.840;2023-02-05T02:48:48;33.90;;;17.20;;
6019;SDS011;3038;51.122;6.840;2023-02-05T02:51:16;33.10;;;16.97;;
6019;SDS011;3038;51.122;6.840;2023-02-05T02:53:48;30.07;;;17.37;;
6019;SDS011;3038;51.122;6.840;2023-02-05T02:56:16;40.80;;;17.90;;
6019;SDS011;3038;51.122;6.840;2023-02-05T02:58:48;30.63;;;15.90;;
6019;SDS011;3038;51.122;6.840;2023-02-05T03:01:16;36.50;;;19.23;;
6019;SDS011;3038;51.122;6.840;2023-02-05T03:03:48;31.47;;;17.80;;
6019;SDS011;3038;51.122;6.840;2023-02-05T03:06:17;26.73;;;16.03;;
6019;SDS011;3038;51.122;6.840;2023-02-05T03:11:11;34.03;;;18.52;;
6019;SDS011;3038;51.122;6.840;2023-02-05T03:13:38;30.93;;;16.80;;
6019;SDS011;3038;51.122;6.840;2023-02-05T03:16:04;27.83;;;17.30;;
6019;SDS011;3038;51.122;6.840;2023-02-05T03:18:30;26.00;;;16.80;;
6019;SDS011;3038;51.122;6.840;2023-02-05T03:20:59;31.53;;;18.37;;
6019;SDS011;3038;51.122;6.840;2023-02-05T03:23:29;25.47;;;15.03;;
6019;SDS011;3038;51.122;6.840;2023-02-05T03:25:55;37.80;;;17.40;;
6019;SDS011;3038;51.122;6.840;2023-02-05T03:28:21;32.93;;;16.43;;
6019;SDS011;3038;51.122;6.840;2023-02-05T03:30:54;25.43;;;15.53;;
6019;SDS011;3038;51.122;6.840;2023-02-05T03:33:34;31.37;;;16.53;;
6019;SDS011;3038;51.122;6.840;2023-02-05T03:38:52;30.17;;;16.07;;
6019;SDS011;3038;51.122;6.840;2023-02-05T03:50:00;25.80;;;16.43;;
6019;SDS011;3038;51.122;6.840;2023-02-05T03:52:34;33.00;;;16.03;;
6019;SDS011;3038;51.122;6.840;2023-02-05T03:55:10;27.30;;;16.57;;
6019;SDS011;3038;51.122;6.840;2023-02-05T03:57:42;37.10;;;16.27;;
6019;SDS011;3038;51.122;6.840;2023-02-05T04:00:13;25.83;;;16.13;;
6019;SDS011;3038;51.122;6.840;2023-02-05T04:02:39;26.87;;;17.20;;
6019;SDS011;3038;51.122;6.840;2023-02-05T04:05:06;23.73;;;15.00;;
6019;SDS011;3038;51.122;6.840;2023-02-05T04:07:31;30.83;;;15.40;;
6019;SDS011;3038;51.122;6.840;2023-02-05T04:09:57;27.47;;;16.77;;
6019;SDS011;3038;51.122;6.840;2023-02-05T04:12:22;30.67;;;15.80;;
6019;SDS011;3038;51.122;6.840;2023-02-05T04:14:47;29.73;;;17.93;;
6019;SDS011;3038;51.122;6.840;2023-02-05T04:17:13;30.33;;;17.97;;
6019;SDS011;3038;51.122;6.840;2023-02-05T04:19:38;28.50;;;17.67;;
6019;SDS011;3038;51.122;6.840;2023-02-05T04:22:05;33.20;;;17.97;;
6019;SDS011;3038;51.122;6.840;2023-02-05T04:24:31;35.20;;;19.47;;
6019;SDS011;3038;51.122;6.840;2023-02-05T04:26:56;43.43;;;22.20;;
6019;SDS011;3038;51.122;6.840;2023-02-05T04:29:21;41.20;;;20.27;;
6019;SDS011;3038;51.122;6.840;2023-02-05T04:31:47;42.03;;;20.87;;
6019;SDS011;3038;51.122;6.840;2023-02-05T04:34:12;43.20;;;22.23;;
6019;SDS011;3038;51.122;6.840;2023-02-05T04:36:38;45.33;;;22.27;;
6019;SDS011;3038;51.122;6.840;2023-02-05T04:39:03;39.43;;;22.50;;
6019;SDS011;3038;51.122;6.840;2023-02-05T04:41:29;37.90;;;23.37;;
6019;SDS011;3038;51.122;6.840;2023-02-05T04:43:54;40.60;;;21.70;;
6019;SDS011;3038;51.122;6.840;2023-02-05T04:46:19;41.27;;;22.60;;
6019;SDS011;3038;51.122;6.840;2023-02-05T04:48:45;43.43;;;24.27;;
6019;SDS011;3038;51.122;6.840;2023-02-05T04:51:11;45.17;;;25.90;;
6019;SDS011;3038;51.122;6.840;2023-02-05T04:53:37;49.40;;;24.83;;
6019;SDS011;3038;51.122;6.840;2023-02-05T04:56:04;42.93;;;23.00;;
6019;SDS011;3038;51.122;6.840;2023-02-05T04:58:30;36.43;;;22.83;;
6019;SDS011;3038;51.122;6.840;2023-02-05T05:00:55;47.40;;;23.90;;
6019;SDS011;3038;51.122;6.840;2023-02-05T05:03:21;45.77;;;22.60;;
6019;SDS011;3038;51.122;6.840;2023-02-05T05:05:46;39.07;;;22.00;;
6019;SDS011;3038;51.122;6.840;2023-02-05T05:08:11;42.10;;;20.97;;
6019;SDS011;3038;51.122;6.840;2023-02-05T05:10:37;45.73;;;24.00;;
6019;SDS011;3038;51.122;6.840;2023-02-05T05:13:02;43.47;;;21.37;;
6019;SDS011;3038;51.122;6.840;2023-02-05T05:15:28;37.80;;;21.80;;
6019;SDS011;3038;51.122;6.840;2023-02-05T05:17:53;46.57;;;23.20;;
6019;SDS011;3038;51.122;6.840;2023-02-05T05:20:18;42.90;;;21.47;;
6019;SDS011;3038;51.122;6.840;2023-02-05T05:22:44;38.53;;;22.90;;
6019;SDS011;3038;51.122;6.840;2023-02-05T05:25:09;44.83;;;23.03;;
6019;SDS011;3038;51.122;6.840;2023-02-05T05:27:34;41.70;;;23.00;;
6019;SDS011;3038;51.122;6.840;2023-02-05T05:30:00;43.63;;;22.70;;
6019;SDS011;3038;51.122;6.840;2023-02-05T05:32:25;39.80;;;22.20;;
6019;SDS011;3038;51.122;6.840;2023-02-05T05:34:51;38.63;;;22.73;;
6019;SDS011;3038;51.122;6.840;2023-02-05T05:37:16;50.47;;;25.07;;
6019;SDS011;3038;51.122;6.840;2023-02-05T05:39:41;46.67;;;22.60;;
6019;SDS011;3038;51.122;6.840;2023-02-05T05:42:25;50.40;;;24.27;;
6019;SDS011;3038;51.122;6.840;2023-02-05T05:45:09;48.30;;;24.93;;
6019;SDS011;3038;51.122;6.840;2023-02-05T05:47:34;60.63;;;27.70;;
6019;SDS011;3038;51.122;6.840;2023-02-05T05:50:00;53.37;;;26.07;;
6019;SDS011;3038;51.122;6.840;2023-02-05T05:52:25;48.57;;;25.87;;
6019;SDS011;3038;51.122;6.840;2023-02-05T05:54:51;56.97;;;29.30;;
6019;SDS011;3038;51.122;6.840;2023-02-05T05:57:16;54.73;;;27.60;;
6019;SDS011;3038;51.122;6.840;2023-02-05T05:59:41;67.80;;;30.70;;
6019;SDS011;3038;51.122;6.840;2023-02-05T06:02:07;65.60;;;32.07;;
6019;SDS011;3038;51.122;6.840;2023-02-05T06:04:32;58.77;;;30.13;;
6019;SDS011;3038;51.122;6.840;2023-02-05T06:06:57;63.60;;;31.77;;
6019;SDS011;3038;51.122;6.840;2023-02-05T06:09:23;66.57;;;36.53;;
6019;SDS011;3038;51.122;6.840;2023-02-05T06:11:49;69.93;;;36.63;;
6019;SDS011;3038;51.122;6.840;2023-02-05T06:14:15;84.97;;;38.10;;
6019;SDS011;3038;51.122;6.840;2023-02-05T06:16:41;68.47;;;34.20;;
6019;SDS011;3038;51.122;6.840;2023-02-05T06:19:06;76.00;;;36.33;;
6019;SDS011;3038;51.122;6.840;2023-02-05T06:21:32;71.97;;;36.97;;
6019;SDS011;3038;51.122;6.840;2023-02-05T06:23:57;69.17;;;35.47;;
6019;SDS011;3038;51.122;6.840;2023-02-05T06:26:22;71.07;;;37.23;;
6019;SDS011;3038;51.122;6.840;2023-02-05T06:28:48;67.37;;;34.70;;
6019;SDS011;3038;51.122;6.840;2023-02-05T06:31:13;64.23;;;32.67;;
6019;SDS011;3038;51.122;6.840;2023-02-05T06:33:38;70.90;;;36.23;;
6019;SDS011;3038;51.122;6.840;2023-02-05T06:36:04;62.03;;;35.30;;
6019;SDS011;3038;51.122;6.840;2023-02-05T06:38:30;65.67;;;34.53;;
6019;SDS011;3038;51.122;6.840;2023-02-05T06:40:55;63.07;;;33.43;;
6019;SDS011;3038;51.122;6.840;2023-02-05T06:43:21;61.00;;;34.43;;
6019;SDS011;3038;51.122;6.840;2023-02-05T06:45:46;61.47;;;32.37;;
6019;SDS011;3038;51.122;6.840;2023-02-05T06:48:12;63.07;;;33.23;;
6019;SDS011;3038;51.122;6.840;2023-02-05T06:50:37;65.17;;;36.67;;
6019;SDS011;3038;51.122;6.840;2023-02-05T06:53:02;65.30;;;36.07;;
6019;SDS011;3038;51.122;6.840;2023-02-05T06:55:28;62.77;;;33.07;;
6019;SDS011;3038;51.122;6.840;2023-02-05T06:57:53;63.00;;;34.20;;
6019;SDS011;3038;51.122;6.840;2023-02-05T07:00:19;57.73;;;33.10;;
6019;SDS011;3038;51.122;6.840;2023-02-05T07:02:44;60.43;;;34.10;;
6019;SDS011;3038;51.122;6.840;2023-02-05T07:05:09;62.40;;;35.23;;
6019;SDS011;3038;51.122;6.840;2023-02-05T07:07:35;59.77;;;34.40;;
6019;SDS011;3038;51.122;6.840;2023-02-05T07:10:00;63.67;;;33.37;;
6019;SDS011;3038;51.122;6.840;2023-02-05T07:12:26;67.13;;;35.23;;
6019;SDS011;3038;51.122;6.840;2023-02-05T07:14:51;63.73;;;32.07;;
6019;SDS011;3038;51.122;6.840;2023-02-05T07:17:17;56.00;;;32.47;;
6019;SDS011;3038;51.122;6.840;2023-02-05T07:19:42;54.53;;;30.73;;
6019;SDS011;3038;51.122;6.840;2023-02-05T07:22:07;55.10;;;29.50;;
6019;SDS011;3038;51.122;6.840;2023-02-05T07:24:34;58.20;;;30.87;;
6019;SDS011;3038;51.122;6.840;2023-02-05T07:27:00;53.83;;;33.00;;
6019;SDS011;3038;51.122;6.840;2023-02-05T07:29:26;65.80;;;34.17;;
6019;SDS011;3038;51.122;6.840;2023-02-05T07:31:51;48.57;;;28.90;;
6019;SDS011;3038;51.122;6.840;2023-02-05T07:34:16;52.20;;;28.97;;
6019;SDS011;3038;51.122;6.840;2023-02-05T07:36:42;43.40;;;26.07;;
6019;SDS011;3038;51.122;6.840;2023-02-05T07:39:07;45.07;;;25.53;;
6019;SDS011;3038;51.122;6.840;2023-02-05T07:41:33;45.47;;;25.70;;
6019;SDS011;3038;51.122;6.840;2023-02-05T07:43:58;46.13;;;24.83;;
6019;SDS011;3038;51.122;6.840;2023-02-05T07:46:23;42.77;;;24.97;;
6019;SDS011;3038;51.122;6.840;2023-02-05T07:48:49;42.20;;;26.63;;
6019;SDS011;3038;51.122;6.840;2023-02-05T07:51:20;43.20;;;24.57;;
6019;SDS011;3038;51.122;6.840;2023-02-05T07:53:47;42.50;;;24.53;;
6019;SDS011;3038;51.122;6.840;2023-02-05T07:56:14;33.87;;;20.80;;
6019;SDS011;3038;51.122;6.840;2023-02-05T07:58:40;46.13;;;26.47;;
6019;SDS011;3038;51.122;6.840;2023-02-05T08:01:06;42.20;;;25.57;;
6019;SDS011;3038;51.122;6.840;2023-02-05T08:03:31;36.57;;;24.07;;
6019;SDS011;3038;51.122;6.840;2023-02-05T08:05:57;42.53;;;25.80;;
6019;SDS011;3038;51.122;6.840;2023-02-05T08:08:22;43.33;;;25.90;;
6019;SDS011;3038;51.122;6.840;2023-02-05T08:10:57;36.37;;;24.17;;
6019;SDS011;3038;51.122;6.840;2023-02-05T08:13:25;34.63;;;22.77;;
6019;SDS011;3038;51.122;6.840;2023-02-05T08:15:50;41.83;;;24.97;;
6019;SDS011;3038;51.122;6.840;2023-02-05T08:18:15;44.10;;;24.00;;
6019;SDS011;3038;51.122;6.840;2023-02-05T08:20:41;38.33;;;22.50;;
6019;SDS011;3038;51.122;6.840;2023-02-05T08:23:06;42.37;;;24.47;;
6019;SDS011;3038;51.122;6.840;2023-02-05T08:25:31;39.10;;;23.77;;
6019;SDS011;3038;51.122;6.840;2023-02-05T08:27:57;33.70;;;21.73;;
6019;SDS011;3038;51.122;6.840;2023-02-05T08:30:22;33.17;;;21.10;;
6019;SDS011;3038;51.122;6.840;2023-02-05T08:32:48;35.27;;;22.90;;
6019;SDS011;3038;51.122;6.840;2023-02-05T08:35:14;32.57;;;23.30;;
6019;SDS011;3038;51.122;6.840;2023-02-05T08:37:40;31.37;;;20.67;;
6019;SDS011;3038;51.122;6.840;2023-02-05T08:40:08;29.30;;;20.77;;
6019;SDS011;3038;51.122;6.840;2023-02-05T08:42:34;31.13;;;21.13;;
6019;SDS011;3038;51.122;6.840;2023-02-05T08:45:00;24.77;;;16.90;;
6019;SDS011;3038;51.122;6.840;2023-02-05T08:47:25;25.53;;;16.07;;
6019;SDS011;3038;51.122;6.840;2023-02-05T08:49:51;22.97;;;16.10;;
6019;SDS011;3038;51.122;6.840;2023-02-05T08:52:16;21.93;;;15.80;;
6019;SDS011;3038;51.122;6.840;2023-02-05T08:54:42;11.43;;;9.03;;
6019;SDS011;3038;51.122;6.840;2023-02-05T08:57:07;9.63;;;6.23;;
6019;SDS011;3038;51.122;6.840;2023-02-05T08:59:33;8.57;;;5.67;;
6019;SDS011;3038;51.122;6.840;2023-02-05T09:01:59;6.40;;;4.17;;
6019;SDS011;3038;51.122;6.840;2023-02-05T09:04:25;6.50;;;4.67;;
6019;SDS011;3038;51.122;6.840;2023-02-05T09:06:51;4.57;;;3.13;;
6019;SDS011;3038;51.122;6.840;2023-02-05T09:09:16;4.67;;;3.23;;
6019;SDS011;3038;51.122;6.840;2023-02-05T09:11:41;2.77;;;2.50;;
6019;SDS011;3038;51.122;6.840;2023-02-05T09:14:07;5.73;;;3.87;;
6019;SDS011;3038;51.122;6.840;2023-02-05T09:16:33;5.20;;;3.37;;
6019;SDS011;3038;51.122;6.840;2023-02-05T09:18:58;3.53;;;3.23;;
6019;SDS011;3038;51.122;6.840;2023-02-05T09:21:24;6.43;;;3.00;;
6019;SDS011;3038;51.122;6.840;2023-02-05T09:23:50;4.03;;;2.23;;
6019;SDS011;3038;51.122;6.840;2023-02-05T09:26:16;2.80;;;2.47;;
6019;SDS011;3038;51.122;6.840;2023-02-05T09:28:42;5.37;;;2.57;;
6019;SDS011;3038;51.122;6.840;2023-02-05T09:31:08;5.10;;;3.07;;
6019;SDS011;3038;51.122;6.840;2023-02-05T09:33:36;4.70;;;2.60;;
6019;SDS011;3038;51.122;6.840;2023-02-05T09:36:12;3.93;;;2.83;;
6019;SDS011;3038;51.122;6.840;2023-02-05T09:38:39;3.37;;;2.50;;
6019;SDS011;3038;51.122;6.840;2023-02-05T09:41:25;4.23;;;2.50;;
6019;SDS011;3038;51.122;6.840;2023-02-05T09:43:56;5.53;;;2.23;;
6019;SDS011;3038;51.122;6.840;2023-02-05T09:49:22;4.50;;;2.20;;
6019;SDS011;3038;51.122;6.840;2023-02-05T09:52:01;5.90;;;2.60;;
6019;SDS011;3038;51.122;6.840;2023-02-05T09:54:34;5.80;;;3.63;;
6019;SDS011;3038;51.122;6.840;2023-02-05T09:57:05;5.30;;;3.50;;
6019;SDS011;3038;51.122;6.840;2023-02-05T09:59:36;8.27;;;3.23;;
6019;SDS011;3038;51.122;6.840;2023-02-05T10:05:06;6.53;;;2.50;;
6019;SDS011;3038;51.122;6.840;2023-02-05T10:07:45;4.70;;;2.30;;
6019;SDS011;3038;51.122;6.840;2023-02-05T10:10:35;6.00;;;2.67;;
6019;SDS011;3038;51.122;6.840;2023-02-05T10:22:26;3.77;;;1.47;;
6019;SDS011;3038;51.122;6.840;2023-02-05T10:27:50;6.33;;;1.87;;
6019;SDS011;3038;51.122;6.840;2023-02-05T10:30:29;6.00;;;2.53;;
6019;SDS011;3038;51.122;6.840;2023-02-05T10:33:13;3.50;;;1.90;;
6019;SDS011;3038;51.122;6.840;2023-02-05T10:35:56;5.90;;;1.70;;
6019;SDS011;3038;51.122;6.840;2023-02-05T10:38:26;8.13;;;2.27;;
6019;SDS011;3038;51.122;6.840;2023-02-05T10:40:57;5.93;;;1.60;;
6019;SDS011;3038;51.122;6.840;2023-02-05T10:43:42;5.80;;;1.50;;
6019;SDS011;3038;51.122;6.840;2023-02-05T10:46:13;4.70;;;2.03;;
6019;SDS011;3038;51.122;6.840;2023-02-05T10:51:20;4.10;;;2.00;;
6019;SDS011;3038;51.122;6.840;2023-02-05T10:53:53;4.90;;;2.00;;
6019;SDS011;3038;51.122;6.840;2023-02-05T10:56:18;5.73;;;1.60;;
6019;SDS011;3038;51.122;6.840;2023-02-05T10:58:52;6.33;;;2.10;;
6019;SDS011;3038;51.122;6.840;2023-02-05T11:03:53;7.53;;;3.10;;
6019;SDS011;3038;51.122;6.840;2023-02-05T11:06:48;7.80;;;1.80;;
6019;SDS011;3038;51.122;6.840;2023-02-05T11:09:33;5.30;;;2.10;;
6019;SDS011;3038;51.122;6.840;2023-02-05T11:12:12;7.63;;;2.20;;
6019;SDS011;3038;51.122;6.840;2023-02-05T11:14:54;10.30;;;3.40;;
6019;SDS011;3038;51.122;6.840;2023-02-05T11:17:23;9.80;;;3.30;;
6019;SDS011;3038;51.122;6.840;2023-02-05T11:19:56;5.60;;;2.10;;
6019;SDS011;3038;51.122;6.840;2023-02-05T11:22:26;7.27;;;1.93;;
6019;SDS011;3038;51.122;6.840;2023-02-05T11:25:11;12.10;;;2.60;;
6019;SDS011;3038;51.122;6.840;2023-02-05T11:27:40;9.10;;;3.03;;
6019;SDS011;3038;51.122;6.840;2023-02-05T11:32:56;10.17;;;2.00;;
6019;SDS011;3038;51.122;6.840;2023-02-05T11:35:23;10.20;;;2.30;;
6019;SDS011;3038;51.122;6.840;2023-02-05T11:37:54;8.73;;;2.10;;
6019;SDS011;3038;51.122;6.840;2023-02-05T11:40:26;10.87;;;3.60;;
6019;SDS011;3038;51.122;6.840;2023-02-05T11:43:14;8.50;;;2.60;;
6019;SDS011;3038;51.122;6.840;2023-02-05T11:45:47;10.00;;;2.83;;
6019;SDS011;3038;51.122;6.840;2023-02-05T11:48:25;12.57;;;4.03;;
6019;SDS011;3038;51.122;6.840;2023-02-05T11:51:01;5.37;;;4.23;;
6019;SDS011;3038;51.122;6.840;2023-02-05T11:53:29;11.17;;;2.60;;
6019;SDS011;3038;51.122;6.840;2023-02-05T11:55:57;8.83;;;3.70;;
6019;SDS011;3038;51.122;6.840;2023-02-05T11:58:28;7.10;;;3.27;;
6019;SDS011;3038;51.122;6.840;2023-02-05T12:01:03;12.90;;;3.90;;
6019;SDS011;3038;51.122;6.840;2023-02-05T12:03:55;11.63;;;3.20;;
6019;SDS011;3038;51.122;6.840;2023-02-05T12:06:45;12.40;;;3.00;;
6019;SDS011;3038;51.122;6.840;2023-02-05T12:09:20;11.43;;;3.20;;
6019;SDS011;3038;51.122;6.840;2023-02-05T12:18:24;10.60;;;4.03;;
6019;SDS011;3038;51.122;6.840;2023-02-05T12:26:35;12.83;;;3.80;;
6019;SDS011;3038;51.122;6.840;2023-02-05T12:29:12;9.97;;;4.50;;
6019;SDS011;3038;51.122;6.840;2023-02-05T12:32:00;5.87;;;4.10;;
6019;SDS011;3038;51.122;6.840;2023-02-05T12:37:08;10.60;;;5.00;;
6019;SDS011;3038;51.122;6.840;2023-02-05T12:39:44;11.10;;;4.97;;
6019;SDS011;3038;51.122;6.840;2023-02-05T12:53:37;9.17;;;3.47;;
6019;SDS011;3038;51.122;6.840;2023-02-05T12:58:41;12.20;;;4.00;;
6019;SDS011;3038;51.122;6.840;2023-02-05T13:01:13;4.67;;;3.00;;
6019;SDS011;3038;51.122;6.840;2023-02-05T13:03:47;9.43;;;5.83;;
6019;SDS011;3038;51.122;6.840;2023-02-05T13:06:22;10.00;;;2.80;;
6019;SDS011;3038;51.122;6.840;2023-02-05T13:11:37;3.77;;;2.10;;
6019;SDS011;3038;51.122;6.840;2023-02-05T13:16:37;5.57;;;2.47;;
6019;SDS011;3038;51.122;6.840;2023-02-05T13:21:44;9.77;;;2.30;;
6019;SDS011;3038;51.122;6.840;2023-02-05T13:24:33;3.23;;;2.07;;
6019;SDS011;3038;51.122;6.840;2023-02-05T13:27:28;5.20;;;2.60;;
6019;SDS011;3038;51.122;6.840;2023-02-05T13:30:28;4.17;;;1.90;;
6019;SDS011;3038;51.122;6.840;2023-02-05T13:32:58;8.90;;;3.00;;
6019;SDS011;3038;51.122;6.840;2023-02-05T13:35:30;3.57;;;1.77;;
6019;SDS011;3038;51.122;6.840;2023-02-05T13:38:15;3.70;;;2.00;;
6019;SDS011;3038;51.122;6.840;2023-02-05T13:41:09;8.23;;;2.07;;
6019;SDS011;3038;51.122;6.840;2023-02-05T13:58:25;5.80;;;1.70;;
6019;SDS011;3038;51.122;6.840;2023-02-05T14:01:03;6.03;;;2.83;;
6019;SDS011;3038;51.122;6.840;2023-02-05T14:03:38;5.23;;;1.60;;
6019;SDS011;3038;51.122;6.840;2023-02-05T14:06:11;3.97;;;1.53;;
6019;SDS011;3038;51.122;6.840;2023-02-05T14:08:45;6.17;;;1.97;;
6019;SDS011;3038;51.122;6.840;2023-02-05T14:11:11;6.13;;;1.50;;
6019;SDS011;3038;51.122;6.840;2023-02-05T14:13:37;10.00;;;2.17;;
6019;SDS011;3038;51.122;6.840;2023-02-05T14:24:03;4.97;;;1.53;;
6019;SDS011;3038;51.122;6.840;2023-02-05T14:26:53;4.93;;;1.90;;
6019;SDS011;3038;51.122;6.840;2023-02-05T14:34:59;4.80;;;1.93;;
6019;SDS011;3038;51.122;6.840;2023-02-05T14:39:58;12.63;;;1.80;;
6019;SDS011;3038;51.122;6.840;2023-02-05T14:42:35;6.97;;;1.97;;
6019;SDS011;3038;51.122;6.840;2023-02-05T14:45:01;6.50;;;2.10;;
6019;SDS011;3038;51.122;6.840;2023-02-05T14:47:28;4.90;;;2.00;;
6019;SDS011;3038;51.122;6.840;2023-02-05T14:49:58;6.27;;;2.07;;
6019;SDS011;3038;51.122;6.840;2023-02-05T15:00:25;7.67;;;2.30;;
6019;SDS011;3038;51.122;6.840;2023-02-05T15:05:39;5.20;;;2.20;;
6019;SDS011;3038;51.122;6.840;2023-02-05T15:10:57;5.43;;;1.70;;
6019;SDS011;3038;51.122;6.840;2023-02-05T15:13:35;7.13;;;3.07;;
6019;SDS011;3038;51.122;6.840;2023-02-05T15:18:54;6.10;;;1.87;;
6019;SDS011;3038;51.122;6.840;2023-02-05T15:21:27;9.23;;;2.43;;
6019;SDS011;3038;51.122;6.840;2023-02-05T15:23:58;11.03;;;3.20;;
6019;SDS011;3038;51.122;6.840;2023-02-05T15:29:00;9.90;;;2.43;;
6019;SDS011;3038;51.122;6.840;2023-02-05T15:31:40;5.00;;;2.03;;
6019;SDS011;3038;51.122;6.840;2023-02-05T15:37:01;4.10;;;1.37;;
6019;SDS011;3038;51.122;6.840;2023-02-05T15:39:49;8.23;;;2.47;;
6019;SDS011;3038;51.122;6.840;2023-02-05T15:42:17;13.93;;;2.80;;
6019;SDS011;3038;51.122;6.840;2023-02-05T15:44:45;11.60;;;2.40;;
6019;SDS011;3038;51.122;6.840;2023-02-05T15:47:16;6.20;;;2.97;;
6019;SDS011;3038;51.122;6.840;2023-02-05T15:49:45;11.70;;;3.40;;
6019;SDS011;3038;51.122;6.840;2023-02-05T15:52:15;10.40;;;2.13;;
6019;SDS011;3038;51.122;6.840;2023-02-05T15:54:49;6.50;;;2.50;;
6019;SDS011;3038;51.122;6.840;2023-02-05T15:57:22;9.40;;;2.77;;
6019;SDS011;3038;51.122;6.840;2023-02-05T15:59:51;8.47;;;2.47;;
6019;SDS011;3038;51.122;6.840;2023-02-05T16:02:22;8.50;;;3.10;;
6019;SDS011;3038;51.122;6.840;2023-02-05T16:07:28;11.97;;;3.33;;
6019;SDS011;3038;51.122;6.840;2023-02-05T16:09:56;9.23;;;2.67;;
6019;SDS011;3038;51.122;6.840;2023-02-05T16:12:23;7.77;;;3.20;;
6019;SDS011;3038;51.122;6.840;2023-02-05T16:14:56;15.70;;;4.03;;
6019;SDS011;3038;51.122;6.840;2023-02-05T16:17:36;16.20;;;3.33;;
6019;SDS011;3038;51.122;6.840;2023-02-05T16:22:43;13.73;;;3.63;;
6019;SDS011;3038;51.122;6.840;2023-02-05T16:27:50;6.77;;;2.40;;
6019;SDS011;3038;51.122;6.840;2023-02-05T16:30:24;15.77;;;3.83;;
6019;SDS011;3038;51.122;6.840;2023-02-05T16:32:57;10.13;;;2.80;;
6019;SDS011;3038;51.122;6.840;2023-02-05T16:35:28;13.30;;;3.60;;
6019;SDS011;3038;51.122;6.840;2023-02-05T16:37:58;12.00;;;3.70;;
6019;SDS011;3038;51.122;6.840;2023-02-05T16:40:29;9.17;;;3.07;;
6019;SDS011;3038;51.122;6.840;2023-02-05T16:42:59;11.80;;;3.77;;
6019;SDS011;3038;51.122;6.840;2023-02-05T16:45:40;13.83;;;3.00;;
6019;SDS011;3038;51.122;6.840;2023-02-05T16:54:00;12.33;;;4.33;;
6019;SDS011;3038;51.122;6.840;2023-02-05T16:59:25;11.57;;;3.70;;
6019;SDS011;3038;51.122;6.840;2023-02-05T17:01:56;10.07;;;4.90;;
6019;SDS011;3038;51.122;6.840;2023-02-05T17:04:28;8.00;;;3.77;;
6019;SDS011;3038;51.122;6.840;2023-02-05T17:06:57;8.27;;;3.80;;
6019;SDS011;3038;51.122;6.840;2023-02-05T17:14:57;12.27;;;3.07;;
6019;SDS011;3038;51.122;6.840;2023-02-05T17:17:29;11.77;;;3.63;;
6019;SDS011;3038;51.122;6.840;2023-02-05T17:20:06;11.00;;;3.70;;
6019;SDS011;3038;51.122;6.840;2023-02-05T17:25:22;12.20;;;4.40;;
6019;SDS011;3038;51.122;6.840;2023-02-05T17:27:48;16.10;;;3.60;;
6019;SDS011;3038;51.122;6.840;2023-02-05T17:30:14;11.10;;;3.67;;
6019;SDS011;3038;51.122;6.840;2023-02-05T17:32:42;12.93;;;3.37;;
6019;SDS011;3038;51.122;6.840;2023-02-05T17:35:17;14.83;;;3.73;;
6019;SDS011;3038;51.122;6.840;2023-02-05T17:37:48;10.03;;;2.90;;
6019;SDS011;3038;51.122;6.840;2023-02-05T17:40:15;9.90;;;4.20;;
6019;SDS011;3038;51.122;6.840;2023-02-05T17:42:40;15.40;;;3.60;;
6019;SDS011;3038;51.122;6.840;2023-02-05T17:45:39;7.50;;;2.90;;
6019;SDS011;3038;51.122;6.840;2023-02-05T17:48:00;21.27;;;6.40;;
6019;SDS011;3038;51.122;6.840;2023-02-05T17:50:26;11.63;;;3.87;;
6019;SDS011;3038;51.122;6.840;2023-02-05T17:52:52;15.70;;;4.20;;
6019;SDS011;3038;51.122;6.840;2023-02-05T17:55:20;16.60;;;3.33;;
6019;SDS011;3038;51.122;6.840;2023-02-05T17:57:45;14.80;;;4.33;;
6019;SDS011;3038;51.122;6.840;2023-02-05T18:02:41;16.97;;;3.60;;